sensor_id;sensor_type;location;lat;lon;timestamp;P1;durP1;ratioP1;P2;durP2;ratioP2
10469;SDS011;5282;47.052;15.458;2023-12-20T00:02:06;13.57;;;9.30;;
10469;SDS011;5282;47.052;15.458;2023-12-20T00:04:33;15.10;;;9.67;;
10469;SDS011;5282;47.052;15.458;2023-12-20T00:06:59;13.67;;;8.80;;
10469;SDS011;5282;47.052;15.458;2023-12-20T00:09:28;14.17;;;9.03;;
10469;SDS011;5282;47.052;15.458;2023-12-20T00:11:55;14.80;;;9.40;;
10469;SDS011;5282;47.052;15.458;2023-12-20T00:14:22;13.60;;;8.67;;
10469;SDS011;5282;47.052;15.458;2023-12-20T00:16:49;12.70;;;8.20;;
10469;SDS011;5282;47.052;15.458;2023-12-20T00:19:16;13.80;;;10.40;;
10469;SDS011;5282;47.052;15.458;2023-12-20T00:21:43;16.90;;;10.60;;
10469;SDS011;5282;47.052;15.458;2023-12-20T00:24:09;26.73;;;15.37;;
10469;SDS011;5282;47.052;15.458;2023-12-20T00:26:40;24.07;;;14.57;;
10469;SDS011;5282;47.052;15.458;2023-12-20T00:29:08;19.57;;;12.97;;
10469;SDS011;5282;47.052;15.458;2023-12-20T00:31:34;20.30;;;12.10;;
10469;SDS011;5282;47.052;15.458;2023-12-20T00:34:01;25.30;;;13.10;;
10469;SDS011;5282;47.052;15.458;2023-12-20T00:36:28;19.77;;;12.93;;
10469;SDS011;5282;47.052;15.458;2023-12-20T00:38:55;21.60;;;13.70;;
10469;SDS011;5282;47.052;15.458;2023-12-20T00:41:22;23.33;;;14.10;;
10469;SDS011;5282;47.052;15.458;2023-12-20T00:43:50;19.30;;;12.13;;
10469;SDS011;5282;47.052;15.458;2023-12-20T00:46:17;21.07;;;12.70;;
10469;SDS011;5282;47.052;15.458;2023-12-20T00:48:45;20.20;;;12.63;;
10469;SDS011;5282;47.052;15.458;2023-12-20T00:51:11;21.63;;;13.17;;
10469;SDS011;5282;47.052;15.458;2023-12-20T00:53:38;20.87;;;12.43;;
10469;SDS011;5282;47.052;15.458;2023-12-20T00:56:05;20.40;;;13.17;;
10469;SDS011;5282;47.052;15.458;2023-12-20T00:58:32;19.50;;;11.93;;
10469;SDS011;5282;47.052;15.458;2023-12-20T01:01:00;21.90;;;12.00;;
10469;SDS011;5282;47.052;15.458;2023-12-20T01:03:29;19.20;;;12.50;;
10469;SDS011;5282;47.052;15.458;2023-12-20T01:06:01;18.93;;;12.60;;
10469;SDS011;5282;47.052;15.458;2023-12-20T01:08:31;20.63;;;12.00;;
10469;SDS011;5282;47.052;15.458;2023-12-20T01:11:04;19.60;;;12.30;;
10469;SDS011;5282;47.052;15.458;2023-12-20T01:13:32;21.00;;;11.90;;
10469;SDS011;5282;47.052;15.458;2023-12-20T01:16:02;17.03;;;11.00;;
10469;SDS011;5282;47.052;15.458;2023-12-20T01:18:31;17.23;;;11.47;;
10469;SDS011;5282;47.052;15.458;2023-12-20T01:21:03;21.40;;;12.63;;
10469;SDS011;5282;47.052;15.458;2023-12-20T01:23:36;18.43;;;12.10;;
10469;SDS011;5282;47.052;15.458;2023-12-20T01:26:18;20.53;;;12.07;;
10469;SDS011;5282;47.052;15.458;2023-12-20T01:28:50;18.80;;;11.37;;
10469;SDS011;5282;47.052;15.458;2023-12-20T01:31:21;24.27;;;12.17;;
10469;SDS011;5282;47.052;15.458;2023-12-20T01:33:49;21.73;;;12.33;;
10469;SDS011;5282;47.052;15.458;2023-12-20T01:36:17;23.20;;;12.93;;
10469;SDS011;5282;47.052;15.458;2023-12-20T01:38:49;21.07;;;12.77;;
10469;SDS011;5282;47.052;15.458;2023-12-20T01:41:18;28.30;;;13.83;;
10469;SDS011;5282;47.052;15.458;2023-12-20T01:43:49;19.90;;;12.20;;
10469;SDS011;5282;47.052;15.458;2023-12-20T01:46:24;28.17;;;14.43;;
10469;SDS011;5282;47.052;15.458;2023-12-20T01:48:54;23.77;;;13.53;;
10469;SDS011;5282;47.052;15.458;2023-12-20T01:51:23;23.33;;;13.67;;
10469;SDS011;5282;47.052;15.458;2023-12-20T01:53:54;25.83;;;14.63;;
10469;SDS011;5282;47.052;15.458;2023-12-20T01:56:30;20.50;;;13.07;;
10469;SDS011;5282;47.052;15.458;2023-12-20T01:58:59;23.17;;;13.47;;
10469;SDS011;5282;47.052;15.458;2023-12-20T02:01:30;21.90;;;13.10;;
10469;SDS011;5282;47.052;15.458;2023-12-20T02:03:57;26.40;;;14.20;;
10469;SDS011;5282;47.052;15.458;2023-12-20T02:06:27;22.17;;;13.33;;
10469;SDS011;5282;47.052;15.458;2023-12-20T02:08:57;21.20;;;12.53;;
10469;SDS011;5282;47.052;15.458;2023-12-20T02:11:24;21.83;;;13.00;;
10469;SDS011;5282;47.052;15.458;2023-12-20T02:13:53;24.60;;;12.53;;
10469;SDS011;5282;47.052;15.458;2023-12-20T02:16:21;20.00;;;12.67;;
10469;SDS011;5282;47.052;15.458;2023-12-20T02:18:50;22.20;;;12.30;;
10469;SDS011;5282;47.052;15.458;2023-12-20T02:21:17;23.07;;;11.67;;
10469;SDS011;5282;47.052;15.458;2023-12-20T02:23:45;20.40;;;12.00;;
10469;SDS011;5282;47.052;15.458;2023-12-20T02:26:12;21.27;;;11.50;;
10469;SDS011;5282;47.052;15.458;2023-12-20T02:28:40;20.67;;;11.43;;
10469;SDS011;5282;47.052;15.458;2023-12-20T02:31:07;19.73;;;10.70;;
10469;SDS011;5282;47.052;15.458;2023-12-20T02:33:34;26.27;;;11.83;;
10469;SDS011;5282;47.052;15.458;2023-12-20T02:36:02;23.53;;;10.83;;
10469;SDS011;5282;47.052;15.458;2023-12-20T02:38:29;28.80;;;11.57;;
10469;SDS011;5282;47.052;15.458;2023-12-20T02:40:58;25.87;;;10.83;;
10469;SDS011;5282;47.052;15.458;2023-12-20T02:43:25;20.10;;;11.30;;
10469;SDS011;5282;47.052;15.458;2023-12-20T02:45:52;25.60;;;11.00;;
10469;SDS011;5282;47.052;15.458;2023-12-20T02:48:19;25.60;;;11.17;;
10469;SDS011;5282;47.052;15.458;2023-12-20T02:50:46;26.83;;;11.47;;
10469;SDS011;5282;47.052;15.458;2023-12-20T02:53:16;27.90;;;11.20;;
10469;SDS011;5282;47.052;15.458;2023-12-20T02:55:43;21.27;;;9.40;;
10469;SDS011;5282;47.052;15.458;2023-12-20T02:58:12;23.67;;;10.30;;
10469;SDS011;5282;47.052;15.458;2023-12-20T03:00:38;21.93;;;9.70;;
10469;SDS011;5282;47.052;15.458;2023-12-20T03:03:05;15.40;;;10.03;;
10469;SDS011;5282;47.052;15.458;2023-12-20T03:05:32;17.43;;;9.60;;
10469;SDS011;5282;47.052;15.458;2023-12-20T03:07:59;17.00;;;9.27;;
10469;SDS011;5282;47.052;15.458;2023-12-20T03:10:26;17.53;;;9.13;;
10469;SDS011;5282;47.052;15.458;2023-12-20T03:12:54;16.23;;;8.60;;
10469;SDS011;5282;47.052;15.458;2023-12-20T03:15:23;21.80;;;8.93;;
10469;SDS011;5282;47.052;15.458;2023-12-20T03:17:50;13.27;;;8.53;;
10469;SDS011;5282;47.052;15.458;2023-12-20T03:20:18;12.37;;;8.17;;
10469;SDS011;5282;47.052;15.458;2023-12-20T03:22:45;14.57;;;8.50;;
10469;SDS011;5282;47.052;15.458;2023-12-20T03:25:14;12.50;;;8.00;;
10469;SDS011;5282;47.052;15.458;2023-12-20T03:27:44;12.27;;;7.80;;
10469;SDS011;5282;47.052;15.458;2023-12-20T03:30:11;10.63;;;7.67;;
10469;SDS011;5282;47.052;15.458;2023-12-20T03:32:41;9.50;;;6.93;;
10469;SDS011;5282;47.052;15.458;2023-12-20T03:35:08;11.10;;;7.27;;
10469;SDS011;5282;47.052;15.458;2023-12-20T03:37:37;12.40;;;7.80;;
10469;SDS011;5282;47.052;15.458;2023-12-20T03:40:04;8.30;;;6.43;;
10469;SDS011;5282;47.052;15.458;2023-12-20T03:42:32;8.73;;;6.87;;
10469;SDS011;5282;47.052;15.458;2023-12-20T03:44:59;10.03;;;7.47;;
10469;SDS011;5282;47.052;15.458;2023-12-20T03:47:26;12.33;;;8.00;;
10469;SDS011;5282;47.052;15.458;2023-12-20T03:49:56;12.90;;;7.57;;
10469;SDS011;5282;47.052;15.458;2023-12-20T03:52:23;12.80;;;7.50;;
10469;SDS011;5282;47.052;15.458;2023-12-20T03:54:50;8.90;;;7.20;;
10469;SDS011;5282;47.052;15.458;2023-12-20T03:57:18;10.43;;;6.73;;
10469;SDS011;5282;47.052;15.458;2023-12-20T03:59:44;11.63;;;7.40;;
10469;SDS011;5282;47.052;15.458;2023-12-20T04:02:12;10.67;;;6.97;;
10469;SDS011;5282;47.052;15.458;2023-12-20T04:04:39;7.30;;;6.60;;
10469;SDS011;5282;47.052;15.458;2023-12-20T04:07:08;10.07;;;7.23;;
10469;SDS011;5282;47.052;15.458;2023-12-20T04:09:35;8.10;;;6.83;;
10469;SDS011;5282;47.052;15.458;2023-12-20T04:12:03;10.80;;;7.73;;
10469;SDS011;5282;47.052;15.458;2023-12-20T04:14:31;25.23;;;13.83;;
10469;SDS011;5282;47.052;15.458;2023-12-20T04:16:57;18.17;;;10.30;;
10469;SDS011;5282;47.052;15.458;2023-12-20T04:19:24;10.80;;;8.50;;
10469;SDS011;5282;47.052;15.458;2023-12-20T04:21:51;12.43;;;8.67;;
10469;SDS011;5282;47.052;15.458;2023-12-20T04:24:20;10.70;;;7.73;;
10469;SDS011;5282;47.052;15.458;2023-12-20T04:26:47;11.40;;;7.33;;
10469;SDS011;5282;47.052;15.458;2023-12-20T04:29:14;11.13;;;7.87;;
10469;SDS011;5282;47.052;15.458;2023-12-20T04:31:41;11.70;;;7.73;;
10469;SDS011;5282;47.052;15.458;2023-12-20T04:34:09;9.33;;;7.47;;
10469;SDS011;5282;47.052;15.458;2023-12-20T04:36:35;12.83;;;8.83;;
10469;SDS011;5282;47.052;15.458;2023-12-20T04:39:02;13.37;;;9.30;;
10469;SDS011;5282;47.052;15.458;2023-12-20T04:41:31;14.47;;;8.77;;
10469;SDS011;5282;47.052;15.458;2023-12-20T04:43:58;15.63;;;9.60;;
10469;SDS011;5282;47.052;15.458;2023-12-20T04:46:25;13.10;;;9.00;;
10469;SDS011;5282;47.052;15.458;2023-12-20T04:48:52;10.93;;;9.00;;
10469;SDS011;5282;47.052;15.458;2023-12-20T04:51:19;17.77;;;10.13;;
10469;SDS011;5282;47.052;15.458;2023-12-20T04:53:46;15.10;;;10.67;;
10469;SDS011;5282;47.052;15.458;2023-12-20T04:56:13;18.07;;;11.50;;
10469;SDS011;5282;47.052;15.458;2023-12-20T04:58:41;16.90;;;11.07;;
10469;SDS011;5282;47.052;15.458;2023-12-20T05:01:08;15.40;;;10.87;;
10469;SDS011;5282;47.052;15.458;2023-12-20T05:03:36;19.93;;;10.40;;
10469;SDS011;5282;47.052;15.458;2023-12-20T05:06:03;13.47;;;8.97;;
10469;SDS011;5282;47.052;15.458;2023-12-20T05:08:30;20.00;;;8.60;;
10469;SDS011;5282;47.052;15.458;2023-12-20T05:10:57;12.03;;;8.37;;
10469;SDS011;5282;47.052;15.458;2023-12-20T05:13:24;13.47;;;8.73;;
10469;SDS011;5282;47.052;15.458;2023-12-20T05:15:52;13.23;;;9.80;;
10469;SDS011;5282;47.052;15.458;2023-12-20T05:18:20;13.67;;;8.87;;
10469;SDS011;5282;47.052;15.458;2023-12-20T05:20:46;12.50;;;9.47;;
10469;SDS011;5282;47.052;15.458;2023-12-20T05:23:13;13.20;;;8.60;;
10469;SDS011;5282;47.052;15.458;2023-12-20T05:25:40;12.13;;;9.10;;
10469;SDS011;5282;47.052;15.458;2023-12-20T05:28:07;16.97;;;9.50;;
10469;SDS011;5282;47.052;15.458;2023-12-20T05:30:34;12.00;;;9.60;;
10469;SDS011;5282;47.052;15.458;2023-12-20T05:33:02;13.53;;;9.07;;
10469;SDS011;5282;47.052;15.458;2023-12-20T05:35:29;14.47;;;8.97;;
10469;SDS011;5282;47.052;15.458;2023-12-20T05:37:57;12.10;;;9.57;;
10469;SDS011;5282;47.052;15.458;2023-12-20T05:40:24;11.20;;;8.70;;
10469;SDS011;5282;47.052;15.458;2023-12-20T05:42:51;16.57;;;9.67;;
10469;SDS011;5282;47.052;15.458;2023-12-20T05:45:18;12.07;;;9.00;;
10469;SDS011;5282;47.052;15.458;2023-12-20T05:47:45;13.33;;;8.97;;
10469;SDS011;5282;47.052;15.458;2023-12-20T05:50:13;13.90;;;9.00;;
10469;SDS011;5282;47.052;15.458;2023-12-20T05:52:41;14.43;;;8.87;;
10469;SDS011;5282;47.052;15.458;2023-12-20T05:55:08;11.30;;;8.40;;
10469;SDS011;5282;47.052;15.458;2023-12-20T05:57:34;12.40;;;9.17;;
10469;SDS011;5282;47.052;15.458;2023-12-20T06:00:01;8.90;;;7.80;;
10469;SDS011;5282;47.052;15.458;2023-12-20T06:02:29;10.13;;;7.37;;
10469;SDS011;5282;47.052;15.458;2023-12-20T06:04:56;11.20;;;7.43;;
10469;SDS011;5282;47.052;15.458;2023-12-20T06:07:24;8.20;;;6.97;;
10469;SDS011;5282;47.052;15.458;2023-12-20T06:09:51;8.80;;;7.17;;
10469;SDS011;5282;47.052;15.458;2023-12-20T06:12:18;7.67;;;6.17;;
10469;SDS011;5282;47.052;15.458;2023-12-20T06:14:45;6.00;;;4.50;;
10469;SDS011;5282;47.052;15.458;2023-12-20T06:17:14;10.23;;;5.17;;
10469;SDS011;5282;47.052;15.458;2023-12-20T06:19:41;7.10;;;4.63;;
10469;SDS011;5282;47.052;15.458;2023-12-20T06:22:10;5.40;;;5.00;;
10469;SDS011;5282;47.052;15.458;2023-12-20T06:24:38;8.30;;;5.70;;
10469;SDS011;5282;47.052;15.458;2023-12-20T06:27:05;6.33;;;5.73;;
10469;SDS011;5282;47.052;15.458;2023-12-20T06:29:32;6.30;;;5.33;;
10469;SDS011;5282;47.052;15.458;2023-12-20T06:32:00;5.97;;;5.37;;
10469;SDS011;5282;47.052;15.458;2023-12-20T06:34:27;6.67;;;5.40;;
10469;SDS011;5282;47.052;15.458;2023-12-20T06:36:54;5.80;;;4.87;;
10469;SDS011;5282;47.052;15.458;2023-12-20T06:39:21;5.63;;;4.53;;
10469;SDS011;5282;47.052;15.458;2023-12-20T06:41:49;4.93;;;4.53;;
10469;SDS011;5282;47.052;15.458;2023-12-20T06:44:16;8.03;;;5.07;;
10469;SDS011;5282;47.052;15.458;2023-12-20T06:46:43;5.33;;;4.83;;
10469;SDS011;5282;47.052;15.458;2023-12-20T06:49:11;7.33;;;4.77;;
10469;SDS011;5282;47.052;15.458;2023-12-20T06:51:38;4.60;;;4.20;;
10469;SDS011;5282;47.052;15.458;2023-12-20T06:54:05;5.57;;;4.40;;
10469;SDS011;5282;47.052;15.458;2023-12-20T06:56:32;4.47;;;4.07;;
10469;SDS011;5282;47.052;15.458;2023-12-20T06:59:00;7.13;;;4.63;;
10469;SDS011;5282;47.052;15.458;2023-12-20T07:01:28;4.73;;;4.43;;
10469;SDS011;5282;47.052;15.458;2023-12-20T07:03:55;5.00;;;4.47;;
10469;SDS011;5282;47.052;15.458;2023-12-20T07:06:22;4.70;;;4.30;;
10469;SDS011;5282;47.052;15.458;2023-12-20T07:08:51;7.53;;;5.37;;
10469;SDS011;5282;47.052;15.458;2023-12-20T07:11:18;9.07;;;7.53;;
10469;SDS011;5282;47.052;15.458;2023-12-20T07:13:45;6.97;;;6.20;;
10469;SDS011;5282;47.052;15.458;2023-12-20T07:16:14;8.50;;;7.03;;
10469;SDS011;5282;47.052;15.458;2023-12-20T07:18:43;10.43;;;8.17;;
10469;SDS011;5282;47.052;15.458;2023-12-20T07:21:10;11.60;;;9.13;;
10469;SDS011;5282;47.052;15.458;2023-12-20T07:23:39;15.67;;;10.53;;
10469;SDS011;5282;47.052;15.458;2023-12-20T07:26:06;15.70;;;11.30;;
10469;SDS011;5282;47.052;15.458;2023-12-20T07:28:33;20.87;;;12.27;;
10469;SDS011;5282;47.052;15.458;2023-12-20T07:30:59;25.20;;;12.77;;
10469;SDS011;5282;47.052;15.458;2023-12-20T07:33:28;19.70;;;12.97;;
10469;SDS011;5282;47.052;15.458;2023-12-20T07:35:55;22.00;;;13.13;;
10469;SDS011;5282;47.052;15.458;2023-12-20T07:38:22;20.77;;;12.90;;
10469;SDS011;5282;47.052;15.458;2023-12-20T07:40:48;19.50;;;11.20;;
10469;SDS011;5282;47.052;15.458;2023-12-20T07:43:15;18.87;;;11.67;;
10469;SDS011;5282;47.052;15.458;2023-12-20T07:45:42;14.77;;;11.03;;
10469;SDS011;5282;47.052;15.458;2023-12-20T07:48:09;14.07;;;10.43;;
10469;SDS011;5282;47.052;15.458;2023-12-20T07:50:38;11.93;;;10.33;;
10469;SDS011;5282;47.052;15.458;2023-12-20T07:53:05;12.93;;;9.70;;
10469;SDS011;5282;47.052;15.458;2023-12-20T07:55:32;14.57;;;10.30;;
10469;SDS011;5282;47.052;15.458;2023-12-20T07:57:59;16.17;;;11.30;;
10469;SDS011;5282;47.052;15.458;2023-12-20T08:00:27;15.50;;;10.93;;
10469;SDS011;5282;47.052;15.458;2023-12-20T08:02:54;17.80;;;11.40;;
10469;SDS011;5282;47.052;15.458;2023-12-20T08:05:21;18.63;;;10.97;;
10469;SDS011;5282;47.052;15.458;2023-12-20T08:07:49;13.77;;;10.53;;
10469;SDS011;5282;47.052;15.458;2023-12-20T08:10:16;19.97;;;10.53;;
10469;SDS011;5282;47.052;15.458;2023-12-20T08:12:44;15.97;;;11.73;;
10469;SDS011;5282;47.052;15.458;2023-12-20T08:15:11;22.40;;;12.27;;
10469;SDS011;5282;47.052;15.458;2023-12-20T08:17:39;17.90;;;11.60;;
10469;SDS011;5282;47.052;15.458;2023-12-20T08:20:07;18.73;;;11.73;;
10469;SDS011;5282;47.052;15.458;2023-12-20T08:22:34;20.07;;;13.00;;
10469;SDS011;5282;47.052;15.458;2023-12-20T08:25:03;17.47;;;12.43;;
10469;SDS011;5282;47.052;15.458;2023-12-20T08:27:30;20.03;;;14.30;;
10469;SDS011;5282;47.052;15.458;2023-12-20T08:29:57;19.37;;;14.67;;
10469;SDS011;5282;47.052;15.458;2023-12-20T08:32:24;21.13;;;15.17;;
10469;SDS011;5282;47.052;15.458;2023-12-20T08:34:51;21.37;;;13.33;;
10469;SDS011;5282;47.052;15.458;2023-12-20T08:37:18;20.03;;;13.57;;
10469;SDS011;5282;47.052;15.458;2023-12-20T08:39:45;20.60;;;13.90;;
10469;SDS011;5282;47.052;15.458;2023-12-20T08:42:14;15.23;;;12.47;;
10469;SDS011;5282;47.052;15.458;2023-12-20T08:44:40;19.90;;;13.67;;
10469;SDS011;5282;47.052;15.458;2023-12-20T08:47:07;17.73;;;12.50;;
10469;SDS011;5282;47.052;15.458;2023-12-20T08:49:38;18.17;;;10.97;;
10469;SDS011;5282;47.052;15.458;2023-12-20T08:52:05;16.10;;;11.73;;
10469;SDS011;5282;47.052;15.458;2023-12-20T08:54:32;16.47;;;11.03;;
10469;SDS011;5282;47.052;15.458;2023-12-20T08:56:59;16.17;;;11.57;;
10469;SDS011;5282;47.052;15.458;2023-12-20T08:59:27;16.43;;;11.60;;
10469;SDS011;5282;47.052;15.458;2023-12-20T09:01:54;15.50;;;10.47;;
10469;SDS011;5282;47.052;15.458;2023-12-20T09:04:21;16.00;;;11.00;;
10469;SDS011;5282;47.052;15.458;2023-12-20T09:06:48;17.37;;;11.20;;
10469;SDS011;5282;47.052;15.458;2023-12-20T09:09:15;15.87;;;10.97;;
10469;SDS011;5282;47.052;15.458;2023-12-20T09:11:42;20.00;;;11.83;;
10469;SDS011;5282;47.052;15.458;2023-12-20T09:14:11;15.03;;;11.30;;
10469;SDS011;5282;47.052;15.458;2023-12-20T09:16:39;15.07;;;10.77;;
10469;SDS011;5282;47.052;15.458;2023-12-20T09:19:06;15.10;;;11.10;;
10469;SDS011;5282;47.052;15.458;2023-12-20T09:21:33;17.07;;;10.67;;
10469;SDS011;5282;47.052;15.458;2023-12-20T09:24:00;15.53;;;10.50;;
10469;SDS011;5282;47.052;15.458;2023-12-20T09:26:27;15.37;;;9.67;;
10469;SDS011;5282;47.052;15.458;2023-12-20T09:28:54;13.50;;;10.37;;
10469;SDS011;5282;47.052;15.458;2023-12-20T09:31:21;14.87;;;10.23;;
10469;SDS011;5282;47.052;15.458;2023-12-20T09:33:49;13.30;;;10.37;;
10469;SDS011;5282;47.052;15.458;2023-12-20T09:36:16;12.10;;;9.20;;
10469;SDS011;5282;47.052;15.458;2023-12-20T09:38:43;14.70;;;10.00;;
10469;SDS011;5282;47.052;15.458;2023-12-20T09:41:10;15.70;;;10.13;;
10469;SDS011;5282;47.052;15.458;2023-12-20T09:43:37;14.47;;;10.30;;
10469;SDS011;5282;47.052;15.458;2023-12-20T09:46:05;10.57;;;9.03;;
10469;SDS011;5282;47.052;15.458;2023-12-20T09:48:33;13.67;;;9.33;;
10469;SDS011;5282;47.052;15.458;2023-12-20T09:51:03;12.30;;;9.57;;
10469;SDS011;5282;47.052;15.458;2023-12-20T09:53:30;12.17;;;9.57;;
10469;SDS011;5282;47.052;15.458;2023-12-20T09:55:59;13.47;;;9.87;;
10469;SDS011;5282;47.052;15.458;2023-12-20T09:58:26;10.27;;;9.10;;
10469;SDS011;5282;47.052;15.458;2023-12-20T10:00:53;12.57;;;9.67;;
10469;SDS011;5282;47.052;15.458;2023-12-20T10:03:22;12.03;;;9.13;;
10469;SDS011;5282;47.052;15.458;2023-12-20T10:05:52;11.43;;;9.27;;
10469;SDS011;5282;47.052;15.458;2023-12-20T10:08:22;10.80;;;8.60;;
10469;SDS011;5282;47.052;15.458;2023-12-20T10:10:50;12.13;;;8.23;;
10469;SDS011;5282;47.052;15.458;2023-12-20T10:13:17;9.10;;;8.13;;
10469;SDS011;5282;47.052;15.458;2023-12-20T10:15:44;10.43;;;8.73;;
10469;SDS011;5282;47.052;15.458;2023-12-20T10:18:11;9.70;;;8.70;;
10469;SDS011;5282;47.052;15.458;2023-12-20T10:20:40;16.73;;;9.50;;
10469;SDS011;5282;47.052;15.458;2023-12-20T10:23:08;11.13;;;8.77;;
10469;SDS011;5282;47.052;15.458;2023-12-20T10:25:36;11.43;;;8.43;;
10469;SDS011;5282;47.052;15.458;2023-12-20T10:28:09;9.40;;;8.13;;
10469;SDS011;5282;47.052;15.458;2023-12-20T10:30:37;11.93;;;8.27;;
10469;SDS011;5282;47.052;15.458;2023-12-20T10:33:05;12.03;;;8.63;;
10469;SDS011;5282;47.052;15.458;2023-12-20T10:35:33;12.20;;;8.50;;
10469;SDS011;5282;47.052;15.458;2023-12-20T10:38:01;12.20;;;8.63;;
10469;SDS011;5282;47.052;15.458;2023-12-20T10:40:30;10.20;;;8.47;;
10469;SDS011;5282;47.052;15.458;2023-12-20T10:42:58;9.53;;;7.13;;
10469;SDS011;5282;47.052;15.458;2023-12-20T10:45:27;11.03;;;7.70;;
10469;SDS011;5282;47.052;15.458;2023-12-20T10:47:54;7.60;;;6.83;;
10469;SDS011;5282;47.052;15.458;2023-12-20T10:50:24;11.20;;;8.10;;
10469;SDS011;5282;47.052;15.458;2023-12-20T10:52:51;11.07;;;7.17;;
10469;SDS011;5282;47.052;15.458;2023-12-20T10:55:21;9.87;;;7.43;;
10469;SDS011;5282;47.052;15.458;2023-12-20T10:57:48;7.93;;;7.13;;
10469;SDS011;5282;47.052;15.458;2023-12-20T11:00:18;11.33;;;7.37;;
10469;SDS011;5282;47.052;15.458;2023-12-20T11:02:48;7.97;;;7.17;;
10469;SDS011;5282;47.052;15.458;2023-12-20T11:05:19;15.17;;;7.90;;
10469;SDS011;5282;47.052;15.458;2023-12-20T11:07:57;11.33;;;7.30;;
10469;SDS011;5282;47.052;15.458;2023-12-20T11:10:30;11.73;;;7.07;;
10469;SDS011;5282;47.052;15.458;2023-12-20T11:13:03;10.43;;;6.77;;
10469;SDS011;5282;47.052;15.458;2023-12-20T11:15:37;9.13;;;7.20;;
10469;SDS011;5282;47.052;15.458;2023-12-20T11:18:04;11.50;;;7.40;;
10469;SDS011;5282;47.052;15.458;2023-12-20T11:20:35;11.50;;;6.67;;
10469;SDS011;5282;47.052;15.458;2023-12-20T11:23:03;7.93;;;6.90;;
10469;SDS011;5282;47.052;15.458;2023-12-20T11:25:34;8.00;;;6.07;;
10469;SDS011;5282;47.052;15.458;2023-12-20T11:28:13;10.90;;;7.40;;
10469;SDS011;5282;47.052;15.458;2023-12-20T11:30:42;7.50;;;6.73;;
10469;SDS011;5282;47.052;15.458;2023-12-20T11:33:12;9.73;;;7.10;;
10469;SDS011;5282;47.052;15.458;2023-12-20T11:35:40;8.10;;;6.73;;
10469;SDS011;5282;47.052;15.458;2023-12-20T11:38:08;13.60;;;7.40;;
10469;SDS011;5282;47.052;15.458;2023-12-20T11:40:36;9.47;;;6.80;;
10469;SDS011;5282;47.052;15.458;2023-12-20T11:43:03;12.93;;;7.30;;
10469;SDS011;5282;47.052;15.458;2023-12-20T11:45:31;9.57;;;7.10;;
10469;SDS011;5282;47.052;15.458;2023-12-20T11:48:01;11.97;;;8.07;;
10469;SDS011;5282;47.052;15.458;2023-12-20T11:50:28;11.80;;;7.77;;
10469;SDS011;5282;47.052;15.458;2023-12-20T11:52:56;10.17;;;7.60;;
10469;SDS011;5282;47.052;15.458;2023-12-20T11:55:23;12.07;;;7.67;;
10469;SDS011;5282;47.052;15.458;2023-12-20T11:57:50;10.83;;;7.63;;
10469;SDS011;5282;47.052;15.458;2023-12-20T12:00:18;15.93;;;7.67;;
10469;SDS011;5282;47.052;15.458;2023-12-20T12:02:54;9.30;;;6.90;;
10469;SDS011;5282;47.052;15.458;2023-12-20T12:05:23;10.57;;;7.43;;
10469;SDS011;5282;47.052;15.458;2023-12-20T12:07:51;12.40;;;8.37;;
10469;SDS011;5282;47.052;15.458;2023-12-20T12:10:18;15.70;;;8.20;;
10469;SDS011;5282;47.052;15.458;2023-12-20T12:12:45;10.93;;;6.80;;
10469;SDS011;5282;47.052;15.458;2023-12-20T12:15:12;10.93;;;7.70;;
10469;SDS011;5282;47.052;15.458;2023-12-20T12:17:39;13.03;;;7.77;;
10469;SDS011;5282;47.052;15.458;2023-12-20T12:20:06;12.13;;;7.37;;
10469;SDS011;5282;47.052;15.458;2023-12-20T12:22:36;14.00;;;7.50;;
10469;SDS011;5282;47.052;15.458;2023-12-20T12:25:09;7.63;;;6.10;;
10469;SDS011;5282;47.052;15.458;2023-12-20T12:27:39;12.23;;;7.43;;
10469;SDS011;5282;47.052;15.458;2023-12-20T12:30:07;12.43;;;7.67;;
10469;SDS011;5282;47.052;15.458;2023-12-20T12:32:35;10.90;;;8.00;;
10469;SDS011;5282;47.052;15.458;2023-12-20T12:35:02;8.67;;;6.97;;
10469;SDS011;5282;47.052;15.458;2023-12-20T12:37:31;13.90;;;8.03;;
10469;SDS011;5282;47.052;15.458;2023-12-20T12:40:03;13.87;;;8.17;;
10469;SDS011;5282;47.052;15.458;2023-12-20T12:42:30;18.97;;;9.07;;
10469;SDS011;5282;47.052;15.458;2023-12-20T12:44:57;19.07;;;9.47;;
10469;SDS011;5282;47.052;15.458;2023-12-20T12:47:24;18.13;;;9.40;;
10469;SDS011;5282;47.052;15.458;2023-12-20T12:49:51;13.43;;;9.30;;
10469;SDS011;5282;47.052;15.458;2023-12-20T12:52:18;14.07;;;8.63;;
10469;SDS011;5282;47.052;15.458;2023-12-20T12:54:45;10.80;;;7.73;;
10469;SDS011;5282;47.052;15.458;2023-12-20T12:57:14;12.23;;;8.57;;
10469;SDS011;5282;47.052;15.458;2023-12-20T12:59:42;15.77;;;7.60;;
10469;SDS011;5282;47.052;15.458;2023-12-20T13:02:11;15.47;;;8.20;;
10469;SDS011;5282;47.052;15.458;2023-12-20T13:04:38;10.20;;;8.27;;
10469;SDS011;5282;47.052;15.458;2023-12-20T13:07:05;12.47;;;9.40;;
10469;SDS011;5282;47.052;15.458;2023-12-20T13:09:32;15.97;;;10.07;;
10469;SDS011;5282;47.052;15.458;2023-12-20T13:12:00;11.53;;;9.70;;
10469;SDS011;5282;47.052;15.458;2023-12-20T13:14:30;16.30;;;9.00;;
10469;SDS011;5282;47.052;15.458;2023-12-20T13:16:58;14.40;;;8.63;;
10469;SDS011;5282;47.052;15.458;2023-12-20T13:19:25;19.50;;;9.53;;
10469;SDS011;5282;47.052;15.458;2023-12-20T13:21:52;17.47;;;9.77;;
10469;SDS011;5282;47.052;15.458;2023-12-20T13:24:20;16.20;;;9.60;;
10469;SDS011;5282;47.052;15.458;2023-12-20T13:26:47;12.60;;;8.73;;
10469;SDS011;5282;47.052;15.458;2023-12-20T13:29:13;18.47;;;9.03;;
10469;SDS011;5282;47.052;15.458;2023-12-20T13:31:42;20.30;;;9.20;;
10469;SDS011;5282;47.052;15.458;2023-12-20T13:34:09;18.87;;;8.87;;
10469;SDS011;5282;47.052;15.458;2023-12-20T13:36:37;15.53;;;9.97;;
10469;SDS011;5282;47.052;15.458;2023-12-20T13:39:04;18.57;;;11.03;;
10469;SDS011;5282;47.052;15.458;2023-12-20T13:41:32;21.43;;;10.50;;
10469;SDS011;5282;47.052;15.458;2023-12-20T13:43:59;14.23;;;9.60;;
10469;SDS011;5282;47.052;15.458;2023-12-20T13:46:28;17.57;;;10.00;;
10469;SDS011;5282;47.052;15.458;2023-12-20T13:48:56;20.80;;;9.40;;
10469;SDS011;5282;47.052;15.458;2023-12-20T13:51:23;13.30;;;9.13;;
10469;SDS011;5282;47.052;15.458;2023-12-20T13:53:50;18.13;;;10.00;;
10469;SDS011;5282;47.052;15.458;2023-12-20T13:56:17;15.63;;;10.47;;
10469;SDS011;5282;47.052;15.458;2023-12-20T13:58:46;18.23;;;9.63;;
10469;SDS011;5282;47.052;15.458;2023-12-20T14:01:13;17.43;;;9.93;;
10469;SDS011;5282;47.052;15.458;2023-12-20T14:03:40;15.27;;;10.37;;
10469;SDS011;5282;47.052;15.458;2023-12-20T14:06:08;12.43;;;9.70;;
10469;SDS011;5282;47.052;15.458;2023-12-20T14:08:35;19.93;;;11.90;;
10469;SDS011;5282;47.052;15.458;2023-12-20T14:11:02;21.90;;;11.47;;
10469;SDS011;5282;47.052;15.458;2023-12-20T14:13:29;21.80;;;12.23;;
10469;SDS011;5282;47.052;15.458;2023-12-20T14:15:56;22.17;;;13.20;;
10469;SDS011;5282;47.052;15.458;2023-12-20T14:18:25;19.13;;;12.47;;
10469;SDS011;5282;47.052;15.458;2023-12-20T14:20:53;21.50;;;11.93;;
10469;SDS011;5282;47.052;15.458;2023-12-20T14:23:22;20.43;;;11.83;;
10469;SDS011;5282;47.052;15.458;2023-12-20T14:25:49;19.43;;;11.83;;
10469;SDS011;5282;47.052;15.458;2023-12-20T14:28:15;19.70;;;12.07;;
10469;SDS011;5282;47.052;15.458;2023-12-20T14:30:43;20.87;;;11.90;;
10469;SDS011;5282;47.052;15.458;2023-12-20T14:33:09;21.20;;;11.77;;
10469;SDS011;5282;47.052;15.458;2023-12-20T14:35:36;17.30;;;11.77;;